PWSweather.com
Personal Weather Stations
Station Observations
GRD01
Warsaw, LesznoPL 05-084

WarsawLesznoPL 05-084

Lat: 52.257404, Lon: 20.564847

Elevation: 298

Station Type: WH3080

http://pogoda.kampinos.waw.pl

Latest ConditionsUpdated 8:29:56 PM GMT+01:01 Sunday, Nov 17, 2019
Currently Today's Max Today's Min Today's Average
Temperature 50.0°F10.0°C 60.1°F15.6°C 44.6°F7.0°C 50.7°F10.4°C
Dew Point 44.1°F6.7°C 49.2°F9.6°C 40.5°F4.7°C 44.2°F6.8°C
Winds 14.5 mph ESE23.3 kmh ESE 15.9 mph -25.6 kmh - - 6.1 mph 9.8 kmh
Wind Gusts 18.3 mph29.5 kmh 22.8 mph36.7 kmh - -
Humidity 80% 89% 61% 79%
Pressure 30.02 in1016.6 mb 30.11 in1019.6 mb 30.02 in1016.6 mb -
Hour Temp Dew Point Humidity Winds Wind Gusts Pressure Precip Precip Rate Daily Precip Total
08:29 PM 50.0°F10.0°C 44.1°F6.7°C 80% 14.5 mph ESE23.3 kmh ESE 18.3 mph29.5 kmh 30.02 in1016.6 mb 0.00 in0.0 mm 0.00 in0.0 mm 0.00 in0.0 mm
08:14 PM 50.0°F10.0°C 44.1°F6.7°C 80% 9.2 mph ESE14.8 kmh ESE 14.5 mph23.3 kmh 30.03 in1016.9 mb 0.00 in0.0 mm 0.00 in0.0 mm 0.00 in0.0 mm
07:59 PM 50.0°F10.0°C 44.1°F6.7°C 80% 10.7 mph ESE17.2 kmh ESE 13.6 mph21.9 kmh 30.02 in1016.6 mb 0.00 in0.0 mm 0.00 in0.0 mm 0.00 in0.0 mm
07:44 PM 49.8°F9.9°C 43.9°F6.6°C 80% 9.2 mph ESE14.8 kmh ESE 15.9 mph25.6 kmh 30.03 in1016.9 mb 0.00 in0.0 mm 0.00 in0.0 mm 0.00 in0.0 mm
07:29 PM 49.6°F9.8°C 43.7°F6.5°C 80% 9.2 mph SE14.8 kmh SE 13.6 mph21.9 kmh 30.04 in1017.3 mb 0.00 in0.0 mm 0.00 in0.0 mm 0.00 in0.0 mm
07:14 PM 49.6°F9.8°C 43.7°F6.5°C 80% 8.3 mph SE13.4 kmh SE 17.4 mph28.0 kmh 30.04 in1017.3 mb 0.00 in0.0 mm 0.00 in0.0 mm 0.00 in0.0 mm
06:59 PM 49.5°F9.7°C 43.5°F6.4°C 80% 11.4 mph SE18.3 kmh SE 17.4 mph28.0 kmh 30.04 in1017.3 mb 0.00 in0.0 mm 0.00 in0.0 mm 0.00 in0.0 mm
06:44 PM 49.3°F9.6°C 43.4°F6.3°C 80% 6.9 mph ESE11.1 kmh ESE 15.9 mph25.6 kmh 30.04 in1017.3 mb 0.00 in0.0 mm 0.00 in0.0 mm 0.00 in0.0 mm
06:29 PM 49.1°F9.5°C 42.9°F6.1°C 79% 15.2 mph SE24.5 kmh SE 17.4 mph28.0 kmh 30.04 in1017.3 mb 0.00 in0.0 mm 0.00 in0.0 mm 0.00 in0.0 mm
06:14 PM 49.1°F9.5°C 42.9°F6.1°C 79% 15.2 mph SE24.5 kmh SE 20.6 mph33.2 kmh 30.05 in1017.6 mb 0.00 in0.0 mm 0.00 in0.0 mm 0.00 in0.0 mm
05:59 PM 49.1°F9.5°C 42.9°F6.1°C 79% 9.2 mph SE14.8 kmh SE 16.8 mph27.0 kmh 30.04 in1017.3 mb 0.00 in0.0 mm 0.00 in0.0 mm 0.00 in0.0 mm
05:44 PM 49.1°F9.5°C 42.5°F5.8°C 78% 12.1 mph SE19.5 kmh SE 20.6 mph33.2 kmh 30.04 in1017.3 mb 0.00 in0.0 mm 0.00 in0.0 mm 0.00 in0.0 mm
05:29 PM 49.1°F9.5°C 42.2°F5.7°C 77% 14.5 mph SE23.3 kmh SE 20.6 mph33.2 kmh 30.04 in1017.3 mb 0.00 in0.0 mm 0.00 in0.0 mm 0.00 in0.0 mm
05:14 PM 49.3°F9.6°C 42.0°F5.6°C 76% 9.8 mph SE15.8 kmh SE 17.4 mph28.0 kmh 30.04 in1017.3 mb 0.00 in0.0 mm 0.00 in0.0 mm 0.00 in0.0 mm
04:59 PM 49.6°F9.8°C 41.7°F5.4°C 74% 9.8 mph ESE15.8 kmh ESE 16.8 mph27.0 kmh 30.05 in1017.6 mb 0.00 in0.0 mm 0.00 in0.0 mm 0.00 in0.0 mm
04:44 PM 50.4°F10.2°C 42.0°F5.6°C 73% 11.4 mph ESE18.3 kmh ESE 16.8 mph27.0 kmh 30.04 in1017.3 mb 0.00 in0.0 mm 0.00 in0.0 mm 0.00 in0.0 mm
04:29 PM 51.1°F10.6°C 42.4°F5.8°C 72% 12.1 mph ESE19.5 kmh ESE 22.8 mph36.7 kmh 30.04 in1017.3 mb 0.00 in0.0 mm 0.00 in0.0 mm 0.00 in0.0 mm
04:14 PM 52.3°F11.3°C 43.2°F6.2°C 71% 9.2 mph SE14.8 kmh SE 19.7 mph31.7 kmh 30.04 in1017.3 mb 0.00 in0.0 mm 0.00 in0.0 mm 0.00 in0.0 mm
03:59 PM 53.6°F12.0°C 44.4°F6.9°C 71% 15.9 mph ESE25.6 kmh ESE 20.6 mph33.2 kmh 30.04 in1017.3 mb 0.00 in0.0 mm 0.00 in0.0 mm 0.00 in0.0 mm
03:44 PM 55.8°F13.2°C 44.6°F7.0°C 66% 9.8 mph SE15.8 kmh SE 17.4 mph28.0 kmh 30.04 in1017.3 mb 0.00 in0.0 mm 0.00 in0.0 mm 0.00 in0.0 mm
03:29 PM 57.4°F14.1°C 45.3°F7.4°C 64% 10.7 mph ESE17.2 kmh ESE 18.3 mph29.5 kmh 30.04 in1017.3 mb 0.00 in0.0 mm 0.00 in0.0 mm 0.00 in0.0 mm
03:14 PM 58.3°F14.6°C 45.7°F7.6°C 63% 7.6 mph SE12.2 kmh SE 11.4 mph18.3 kmh 30.04 in1017.3 mb 0.00 in0.0 mm 0.00 in0.0 mm 0.00 in0.0 mm
02:59 PM 59.0°F15.0°C 46.0°F7.8°C 62% 6.9 mph SE11.1 kmh SE 11.4 mph18.3 kmh 30.04 in1017.3 mb 0.00 in0.0 mm 0.00 in0.0 mm 0.00 in0.0 mm
02:44 PM 59.5°F15.3°C 46.1°F7.8°C 61% 4.5 mph SE7.2 kmh SE 13.0 mph20.9 kmh 30.03 in1016.9 mb 0.00 in0.0 mm 0.00 in0.0 mm 0.00 in0.0 mm
02:29 PM 59.9°F15.5°C 46.4°F8.0°C 61% 9.2 mph ESE14.8 kmh ESE 13.0 mph20.9 kmh 30.03 in1016.9 mb 0.00 in0.0 mm 0.00 in0.0 mm 0.00 in0.0 mm
02:14 PM 60.1°F15.6°C 46.6°F8.1°C 61% 8.3 mph SE13.4 kmh SE 13.6 mph21.9 kmh 30.03 in1016.9 mb 0.00 in0.0 mm 0.00 in0.0 mm 0.00 in0.0 mm
01:59 PM 59.7°F15.4°C 46.7°F8.2°C 62% 8.3 mph ESE13.4 kmh ESE 12.1 mph19.5 kmh 30.04 in1017.3 mb 0.00 in0.0 mm 0.00 in0.0 mm 0.00 in0.0 mm
01:44 PM 59.4°F15.2°C 46.8°F8.2°C 63% 9.8 mph E15.8 kmh E 13.0 mph20.9 kmh 30.04 in1017.3 mb 0.00 in0.0 mm 0.00 in0.0 mm 0.00 in0.0 mm
01:29 PM 58.8°F14.9°C 47.1°F8.4°C 65% 9.2 mph SE14.8 kmh SE 12.1 mph19.5 kmh 30.04 in1017.3 mb 0.00 in0.0 mm 0.00 in0.0 mm 0.00 in0.0 mm
01:14 PM 58.6°F14.8°C 47.3°F8.5°C 66% 3.1 mph E5.0 kmh E 9.2 mph14.8 kmh 30.04 in1017.3 mb 0.00 in0.0 mm 0.00 in0.0 mm 0.00 in0.0 mm
12:59 PM 58.6°F14.8°C 47.3°F8.5°C 66% 4.5 mph SE7.2 kmh SE 9.8 mph15.8 kmh 30.04 in1017.3 mb 0.00 in0.0 mm 0.00 in0.0 mm 0.00 in0.0 mm
12:44 PM 58.5°F14.7°C 47.5°F8.6°C 67% 6.9 mph ESE11.1 kmh ESE 12.1 mph19.5 kmh 30.04 in1017.3 mb 0.00 in0.0 mm 0.00 in0.0 mm 0.00 in0.0 mm
12:29 PM 57.7°F14.3°C 47.2°F8.4°C 68% 10.7 mph E17.2 kmh E 15.2 mph24.5 kmh 30.04 in1017.3 mb 0.00 in0.0 mm 0.00 in0.0 mm 0.00 in0.0 mm
12:14 PM 57.4°F14.1°C 47.3°F8.5°C 69% 3.1 mph E5.0 kmh E 15.2 mph24.5 kmh 30.05 in1017.6 mb 0.00 in0.0 mm 0.00 in0.0 mm 0.00 in0.0 mm
11:59 AM 57.2°F14.0°C 47.5°F8.6°C 70% 9.8 mph E15.8 kmh E 17.4 mph28.0 kmh 30.05 in1017.6 mb 0.00 in0.0 mm 0.00 in0.0 mm 0.00 in0.0 mm
11:44 AM 56.8°F13.8°C 47.2°F8.4°C 70% 9.2 mph ESE14.8 kmh ESE 15.9 mph25.6 kmh 30.06 in1017.9 mb 0.00 in0.0 mm 0.00 in0.0 mm 0.00 in0.0 mm
11:29 AM 56.5°F13.6°C 47.2°F8.4°C 71% 9.8 mph E15.8 kmh E 13.6 mph21.9 kmh 30.07 in1018.3 mb 0.00 in0.0 mm 0.00 in0.0 mm 0.00 in0.0 mm
11:14 AM 56.5°F13.6°C 47.6°F8.7°C 72% 9.8 mph E15.8 kmh E 13.0 mph20.9 kmh 30.07 in1018.3 mb 0.00 in0.0 mm 0.00 in0.0 mm 0.00 in0.0 mm
10:59 AM 55.9°F13.3°C 47.8°F8.8°C 74% 7.6 mph E12.2 kmh E 12.1 mph19.5 kmh 30.07 in1018.3 mb 0.00 in0.0 mm 0.00 in0.0 mm 0.00 in0.0 mm
10:44 AM 55.4°F13.0°C 48.0°F8.9°C 76% 9.8 mph E15.8 kmh E 12.1 mph19.5 kmh 30.07 in1018.3 mb 0.00 in0.0 mm 0.00 in0.0 mm 0.00 in0.0 mm
10:29 AM 54.7°F12.6°C 48.3°F9.1°C 79% 5.4 mph ESE8.7 kmh ESE 13.6 mph21.9 kmh 30.08 in1018.6 mb 0.00 in0.0 mm 0.00 in0.0 mm 0.00 in0.0 mm
10:14 AM 54.0°F12.2°C 49.2°F9.6°C 84% 3.8 mph E6.1 kmh E 14.5 mph23.3 kmh 30.09 in1019.0 mb 0.00 in0.0 mm 0.00 in0.0 mm 0.00 in0.0 mm
09:59 AM 53.1°F11.7°C 49.0°F9.4°C 86% 6.0 mph ESE9.7 kmh ESE 12.1 mph19.5 kmh 30.09 in1019.0 mb 0.00 in0.0 mm 0.00 in0.0 mm 0.00 in0.0 mm
09:44 AM 52.0°F11.1°C 48.5°F9.2°C 88% 6.9 mph ESE11.1 kmh ESE 10.7 mph17.2 kmh 30.09 in1019.0 mb 0.00 in0.0 mm 0.00 in0.0 mm 0.00 in0.0 mm
09:29 AM 50.9°F10.5°C 47.8°F8.8°C 89% 7.6 mph E12.2 kmh E 8.3 mph13.4 kmh 30.09 in1019.0 mb 0.00 in0.0 mm 0.00 in0.0 mm 0.00 in0.0 mm
09:14 AM 50.0°F10.0°C 46.9°F8.3°C 89% 4.5 mph ESE7.2 kmh ESE 9.2 mph14.8 kmh 30.09 in1019.0 mb 0.00 in0.0 mm 0.00 in0.0 mm 0.00 in0.0 mm
08:59 AM 49.3°F9.6°C 46.2°F7.9°C 89% 7.6 mph SE12.2 kmh SE 10.7 mph17.2 kmh 30.10 in1019.3 mb 0.00 in0.0 mm 0.00 in0.0 mm 0.00 in0.0 mm
08:44 AM 48.7°F9.3°C 45.3°F7.4°C 88% 6.9 mph SE11.1 kmh SE 10.7 mph17.2 kmh 30.10 in1019.3 mb 0.00 in0.0 mm 0.00 in0.0 mm 0.00 in0.0 mm
08:29 AM 48.0°F8.9°C 44.6°F7.0°C 88% 4.5 mph SE7.2 kmh SE 8.3 mph13.4 kmh 30.10 in1019.3 mb 0.00 in0.0 mm 0.00 in0.0 mm 0.00 in0.0 mm
08:14 AM 47.7°F8.7°C 44.3°F6.8°C 88% 6.0 mph ESE9.7 kmh ESE 9.8 mph15.8 kmh 30.10 in1019.3 mb 0.00 in0.0 mm 0.00 in0.0 mm 0.00 in0.0 mm
07:59 AM 47.1°F8.4°C 43.4°F6.3°C 87% 7.6 mph ESE12.2 kmh ESE 11.4 mph18.3 kmh 30.10 in1019.3 mb 0.00 in0.0 mm 0.00 in0.0 mm 0.00 in0.0 mm
07:44 AM 46.4°F8.0°C 42.7°F5.9°C 87% 4.5 mph ESE7.2 kmh ESE 6.0 mph9.7 kmh 30.10 in1019.3 mb 0.00 in0.0 mm 0.00 in0.0 mm 0.00 in0.0 mm
07:29 AM 45.7°F7.6°C 41.7°F5.4°C 86% 3.1 mph E5.0 kmh E 4.5 mph7.2 kmh 30.10 in1019.3 mb 0.00 in0.0 mm 0.00 in0.0 mm 0.00 in0.0 mm
07:14 AM 45.7°F7.6°C 41.7°F5.4°C 86% 1.6 mph NE2.6 kmh NE 3.1 mph5.0 kmh 30.09 in1019.0 mb 0.00 in0.0 mm 0.00 in0.0 mm 0.00 in0.0 mm
06:59 AM 45.7°F7.6°C 41.7°F5.4°C 86% 1.6 mph NE2.6 kmh NE 3.1 mph5.0 kmh 30.10 in1019.3 mb 0.00 in0.0 mm 0.00 in0.0 mm 0.00 in0.0 mm
06:44 AM 46.4°F8.0°C 42.4°F5.8°C 86% 0.7 mph NE1.1 kmh NE 3.1 mph5.0 kmh 30.09 in1019.0 mb 0.00 in0.0 mm 0.00 in0.0 mm 0.00 in0.0 mm
06:29 AM 46.9°F8.3°C 43.3°F6.3°C 87% 0.7 mph NE1.1 kmh NE 2.2 mph3.5 kmh 30.09 in1019.0 mb 0.00 in0.0 mm 0.00 in0.0 mm 0.00 in0.0 mm
06:14 AM 46.9°F8.3°C 43.0°F6.1°C 86% 1.6 mph NE2.6 kmh NE 3.1 mph5.0 kmh 30.10 in1019.3 mb 0.00 in0.0 mm 0.00 in0.0 mm 0.00 in0.0 mm
05:59 AM 46.8°F8.2°C 42.8°F6.0°C 86% 1.6 mph ENE2.6 kmh ENE 4.5 mph7.2 kmh 30.09 in1019.0 mb 0.00 in0.0 mm 0.00 in0.0 mm 0.00 in0.0 mm
05:44 AM 46.6°F8.1°C 42.6°F5.9°C 86% 4.5 mph ESE7.2 kmh ESE 6.0 mph9.7 kmh 30.10 in1019.3 mb 0.00 in0.0 mm 0.00 in0.0 mm 0.00 in0.0 mm
05:30 AM 46.8°F8.2°C 42.8°F6.0°C 86% 2.2 mph E3.5 kmh E 3.8 mph6.1 kmh 30.10 in1019.3 mb 0.00 in0.0 mm 0.00 in0.0 mm 0.00 in0.0 mm
05:14 AM 46.9°F8.3°C 43.0°F6.1°C 86% 2.2 mph ESE3.5 kmh ESE 3.8 mph6.1 kmh 30.09 in1019.0 mb 0.00 in0.0 mm 0.00 in0.0 mm 0.00 in0.0 mm
04:59 AM 47.1°F8.4°C 43.1°F6.2°C 86% 2.2 mph ESE3.5 kmh ESE 3.8 mph6.1 kmh 30.11 in1019.6 mb 0.00 in0.0 mm 0.00 in0.0 mm 0.00 in0.0 mm
04:44 AM 47.5°F8.6°C 43.5°F6.4°C 86% 1.6 mph ESE2.6 kmh ESE 3.8 mph6.1 kmh 30.10 in1019.3 mb 0.00 in0.0 mm 0.00 in0.0 mm 0.00 in0.0 mm
04:29 AM 47.5°F8.6°C 43.5°F6.4°C 86% 3.1 mph SE5.0 kmh SE 5.4 mph8.7 kmh 30.10 in1019.3 mb 0.00 in0.0 mm 0.00 in0.0 mm 0.00 in0.0 mm
04:14 AM 47.5°F8.6°C 43.5°F6.4°C 86% 1.6 mph SE2.6 kmh SE 4.5 mph7.2 kmh 30.10 in1019.3 mb 0.00 in0.0 mm 0.00 in0.0 mm 0.00 in0.0 mm
03:59 AM 47.5°F8.6°C 43.5°F6.4°C 86% 3.1 mph SE5.0 kmh SE 8.3 mph13.4 kmh 30.10 in1019.3 mb 0.00 in0.0 mm 0.00 in0.0 mm 0.00 in0.0 mm
03:44 AM 47.1°F8.4°C 43.1°F6.2°C 86% 2.2 mph E3.5 kmh E 5.4 mph8.7 kmh 30.10 in1019.3 mb 0.00 in0.0 mm 0.00 in0.0 mm 0.00 in0.0 mm
03:29 AM 46.4°F8.0°C 42.1°F5.6°C 85% 2.2 mph E3.5 kmh E 4.5 mph7.2 kmh 30.10 in1019.3 mb 0.00 in0.0 mm 0.00 in0.0 mm 0.00 in0.0 mm
03:14 AM 46.0°F7.8°C 41.8°F5.4°C 85% 2.2 mph NE3.5 kmh NE 3.1 mph5.0 kmh 30.09 in1019.0 mb 0.00 in0.0 mm 0.00 in0.0 mm 0.00 in0.0 mm
02:59 AM 46.2°F7.9°C 42.0°F5.6°C 85% 0.7 mph N1.1 kmh N 2.2 mph3.5 kmh 30.10 in1019.3 mb 0.00 in0.0 mm 0.00 in0.0 mm 0.00 in0.0 mm
02:44 AM 46.2°F7.9°C 41.7°F5.4°C 84% 0.7 mph E1.1 kmh E 3.1 mph5.0 kmh 30.09 in1019.0 mb 0.00 in0.0 mm 0.00 in0.0 mm 0.00 in0.0 mm
02:29 AM 45.5°F7.5°C 40.9°F4.9°C 84% 1.6 mph ESE2.6 kmh ESE 4.5 mph7.2 kmh 30.09 in1019.0 mb 0.00 in0.0 mm 0.00 in0.0 mm 0.00 in0.0 mm
02:14 AM 44.8°F7.1°C 41.7°F5.4°C 89% 2.2 mph NNE3.5 kmh NNE 3.1 mph5.0 kmh 30.09 in1019.0 mb 0.00 in0.0 mm 0.00 in0.0 mm 0.00 in0.0 mm
01:59 AM 44.6°F7.0°C 41.3°F5.2°C 88% 1.6 mph NE2.6 kmh NE 2.2 mph3.5 kmh 30.09 in1019.0 mb 0.00 in0.0 mm 0.00 in0.0 mm 0.00 in0.0 mm
01:44 AM 44.8°F7.1°C 41.4°F5.2°C 88% Calm Calm 3.1 mph5.0 kmh 30.09 in1019.0 mb 0.00 in0.0 mm 0.00 in0.0 mm 0.00 in0.0 mm
01:29 AM 45.1°F7.3°C 41.8°F5.4°C 88% 0.7 mph E1.1 kmh E 2.2 mph3.5 kmh 30.09 in1019.0 mb 0.00 in0.0 mm 0.00 in0.0 mm 0.00 in0.0 mm
01:14 AM 45.7°F7.6°C 40.5°F4.7°C 82% 1.6 mph N2.6 kmh N 3.8 mph6.1 kmh 30.09 in1019.0 mb 0.00 in0.0 mm 0.00 in0.0 mm 0.00 in0.0 mm
12:59 AM 46.4°F8.0°C 41.5°F5.3°C 83% Calm Calm 2.2 mph3.5 kmh 30.09 in1019.0 mb 0.00 in0.0 mm 0.00 in0.0 mm 0.00 in0.0 mm
12:44 AM 46.8°F8.2°C 41.9°F5.5°C 83% 0.7 mph S1.1 kmh S 1.6 mph2.6 kmh 30.08 in1018.6 mb 0.00 in0.0 mm 0.00 in0.0 mm 0.00 in0.0 mm
12:29 AM 47.1°F8.4°C 42.2°F5.7°C 83% Calm Calm 1.6 mph2.6 kmh 30.08 in1018.6 mb 0.00 in0.0 mm 0.00 in0.0 mm 0.00 in0.0 mm
12:14 AM 47.5°F8.6°C 42.6°F5.9°C 83% 0.7 mph S1.1 kmh S 4.5 mph7.2 kmh 30.07 in1018.3 mb 0.00 in0.0 mm 0.00 in0.0 mm 0.00 in0.0 mm